Time;durP1;ratioP1;P1;durP2;ratioP2;P2;SDS_P1;SDS_P2;PMS_P1;PMS_P2;Temp;Humidity;BMP_temperature;BMP_pressure;BME280_temperature;BME280_humidity;BME280_pressure;Samples;Min_cycle;Max_cycle;Signal;HPM_P1;HPM_P2
2021/11/03 00:00:55;;;;;;;3.03;2.37;;;7.90;99.90;;;;;;5070573;28;20437;-72
2021/11/03 00:03:21;;;;;;;3.47;2.97;;;7.90;99.90;;;;;;5066883;28;20553;-72
2021/11/03 00:05:47;;;;;;;2.93;2.63;;;7.90;99.90;;;;;;5084049;28;20437;-72
2021/11/03 00:08:15;;;;;;;3.13;2.47;;;7.90;99.90;;;;;;5070308;28;20460;-72
2021/11/03 00:10:43;;;;;;;3.50;2.50;;;7.90;99.90;;;;;;5071705;28;20591;-72
2021/11/03 00:13:10;;;;;;;2.37;1.97;;;7.90;99.90;;;;;;5070406;28;20465;-73
2021/11/03 00:15:37;;;;;;;4.20;2.30;;;7.90;99.90;;;;;;5070358;28;20878;-72
2021/11/03 00:18:02;;;;;;;4.03;3.30;;;7.90;99.90;;;;;;5086490;28;20460;-72
2021/11/03 00:20:28;;;;;;;3.70;3.07;;;7.90;99.90;;;;;;5053055;28;20528;-72
2021/11/03 00:22:54;;;;;;;3.50;2.63;;;7.90;99.90;;;;;;5070351;28;20211;-71
2021/11/03 00:25:19;;;;;;;3.07;2.70;;;7.90;99.90;;;;;;5070505;28;20283;-72
2021/11/03 00:27:45;;;;;;;4.03;3.17;;;7.90;99.90;;;;;;5052987;28;20614;-71
2021/11/03 00:30:11;;;;;;;4.03;2.63;;;7.90;99.90;;;;;;5069898;28;20302;-72
2021/11/03 00:32:37;;;;;;;3.77;2.10;;;7.80;99.90;;;;;;5069715;28;20537;-71
2021/11/03 00:35:03;;;;;;;3.93;2.50;;;7.80;99.90;;;;;;5071565;28;20226;-71
2021/11/03 00:37:30;;;;;;;3.57;2.50;;;7.80;99.90;;;;;;5069778;28;20211;-72
2021/11/03 00:39:55;;;;;;;5.27;3.33;;;7.80;99.90;;;;;;5070742;28;20883;-72
2021/11/03 00:42:21;;;;;;;6.50;3.77;;;7.80;99.90;;;;;;5070233;28;20452;-72
2021/11/03 00:44:47;;;;;;;3.60;2.77;;;7.80;99.90;;;;;;5068673;28;20312;-72
2021/11/03 00:47:13;;;;;;;3.73;3.20;;;7.80;99.90;;;;;;5070152;28;20211;-72
2021/11/03 00:49:39;;;;;;;3.53;2.77;;;7.80;99.90;;;;;;5070140;28;20226;-72
2021/11/03 00:52:05;;;;;;;3.17;2.70;;;7.70;99.90;;;;;;5069705;28;20446;-72
2021/11/03 00:54:31;;;;;;;5.10;3.50;;;7.70;99.90;;;;;;5069119;28;20219;-72
2021/11/03 00:56:57;;;;;;;3.03;2.80;;;7.70;99.90;;;;;;5051060;28;20457;-72
2021/11/03 00:59:23;;;;;;;4.83;3.23;;;7.60;99.90;;;;;;5053650;28;20223;-72
2021/11/03 01:01:49;;;;;;;3.73;3.20;;;7.60;99.90;;;;;;5066227;28;20453;-72
2021/11/03 01:04:15;;;;;;;3.73;2.70;;;7.70;99.90;;;;;;5049782;28;20454;-72
2021/11/03 01:06:41;;;;;;;4.27;2.60;;;7.70;99.90;;;;;;5066534;28;20265;-72
2021/11/03 01:09:08;;;;;;;3.00;2.50;;;7.70;99.90;;;;;;5062631;28;20280;-72
2021/11/03 01:11:35;;;;;;;3.77;3.23;;;7.70;99.90;;;;;;5052495;28;20454;-71
2021/11/03 01:14:03;;;;;;;3.93;2.50;;;7.70;99.90;;;;;;5069688;28;20902;-72
2021/11/03 01:16:29;;;;;;;4.63;2.93;;;7.70;99.90;;;;;;5068394;28;20623;-72
2021/11/03 01:18:55;;;;;;;3.70;3.00;;;7.70;99.90;;;;;;5052522;28;20552;-73
2021/11/03 01:21:21;;;;;;;3.37;3.07;;;7.70;99.90;;;;;;5069668;28;20246;-72
2021/11/03 01:23:48;;;;;;;3.77;2.53;;;7.70;99.90;;;;;;5068734;28;20298;-72
2021/11/03 01:26:14;;;;;;;3.10;2.80;;;7.60;99.90;;;;;;5069847;28;20457;-72
2021/11/03 01:28:39;;;;;;;4.20;3.03;;;7.60;99.90;;;;;;5068912;28;20458;-73
2021/11/03 01:31:05;;;;;;;5.67;3.47;;;7.60;99.90;;;;;;5069471;28;20215;-72
2021/11/03 01:33:31;;;;;;;4.67;2.93;;;7.60;99.90;;;;;;5063337;28;20212;-72
2021/11/03 01:35:57;;;;;;;4.20;3.47;;;7.60;99.90;;;;;;5067347;28;20277;-71
2021/11/03 01:38:24;;;;;;;3.40;2.73;;;7.60;99.90;;;;;;5064774;28;20482;-72
2021/11/03 01:40:51;;;;;;;4.73;3.57;;;7.60;99.90;;;;;;5064163;28;20441;-70
2021/11/03 01:43:40;;;;;;;4.17;3.10;;;7.60;99.90;;;;;;5066778;28;20222;-72
2021/11/03 01:46:30;;;;;;;4.37;3.30;;;7.50;99.90;;;;;;5067371;28;20457;-71
2021/11/03 01:49:26;;;;;;;4.27;3.40;;;7.60;99.90;;;;;;5066788;28;20453;-70
2021/11/03 01:52:04;;;;;;;8.50;3.30;;;7.60;99.90;;;;;;5067690;28;20449;-72
2021/11/03 01:54:40;;;;;;;5.93;3.63;;;7.60;99.90;;;;;;5066165;28;20453;-72
2021/11/03 01:57:10;;;;;;;3.53;3.00;;;7.60;99.90;;;;;;5048848;28;20450;-71
2021/11/03 01:59:44;;;;;;;6.90;4.23;;;7.60;99.90;;;;;;5066031;28;20579;-72
2021/11/03 02:02:11;;;;;;;3.10;2.90;;;7.60;99.90;;;;;;5050062;28;20511;-71
2021/11/03 02:04:37;;;;;;;6.53;3.57;;;7.60;99.90;;;;;;5064987;28;20614;-71
2021/11/03 02:07:10;;;;;;;3.43;3.10;;;7.60;99.90;;;;;;5049972;28;20516;-72
2021/11/03 02:09:36;;;;;;;3.50;3.17;;;7.60;99.90;;;;;;5057088;28;20469;-71
2021/11/03 02:12:03;;;;;;;7.73;3.17;;;7.60;99.90;;;;;;5050097;28;20472;-72
2021/11/03 02:14:30;;;;;;;9.73;3.70;;;7.60;99.90;;;;;;5064958;28;20708;-72
2021/11/03 02:16:56;;;;;;;3.53;3.03;;;7.50;99.90;;;;;;5066288;28;20475;-72
2021/11/03 02:19:30;;;;;;;3.17;2.87;;;7.50;99.90;;;;;;5067157;28;20227;-71
2021/11/03 02:22:09;;;;;;;6.30;3.50;;;7.50;99.90;;;;;;5065841;28;20464;-71
2021/11/03 02:25:09;;;;;;;3.83;3.10;;;7.50;99.90;;;;;;5049004;28;20968;-72
2021/11/03 02:27:39;;;;;;;4.63;3.00;;;7.50;99.90;;;;;;5043346;28;20467;-71
2021/11/03 02:30:07;;;;;;;9.30;4.13;;;7.50;99.90;;;;;;5047653;28;20896;-71
2021/11/03 02:32:34;;;;;;;4.03;3.63;;;7.50;99.90;;;;;;5065232;28;20450;-71
2021/11/03 02:35:01;;;;;;;4.43;3.60;;;7.50;99.90;;;;;;5067120;28;20979;-72
2021/11/03 02:37:29;;;;;;;5.70;3.63;;;7.50;99.90;;;;;;5064905;28;20453;-72
2021/11/03 02:40:12;;;;;;;6.13;4.43;;;7.40;99.90;;;;;;5067220;28;20227;-72
2021/11/03 02:42:42;;;;;;;7.70;4.67;;;7.40;99.90;;;;;;5060203;28;20453;-72
2021/11/03 02:45:24;;;;;;;5.27;4.07;;;7.40;99.90;;;;;;5066597;28;20458;-71
2021/11/03 02:47:50;;;;;;;7.47;5.13;;;7.40;99.90;;;;;;5066836;28;20456;-71
2021/11/03 02:50:16;;;;;;;5.70;3.90;;;7.40;99.90;;;;;;5066925;28;20456;-72
2021/11/03 02:52:42;;;;;;;7.07;4.43;;;7.40;99.90;;;;;;5065350;28;20453;-71
2021/11/03 02:55:10;;;;;;;5.90;4.50;;;7.40;99.90;;;;;;5066791;28;20549;-70
2021/11/03 02:57:37;;;;;;;5.87;4.47;;;7.50;99.90;;;;;;5065115;28;20223;-71
2021/11/03 03:00:14;;;;;;;5.80;3.83;;;7.50;99.90;;;;;;5067057;28;20464;-72
2021/11/03 03:02:40;;;;;;;3.87;3.43;;;7.50;99.90;;;;;;5060487;28;20450;-72
2021/11/03 03:05:07;;;;;;;4.50;3.73;;;7.50;99.90;;;;;;5050246;28;20477;-72
2021/11/03 03:07:33;;;;;;;5.70;4.20;;;7.50;99.90;;;;;;5065594;28;20458;-73
2021/11/03 03:09:59;;;;;;;5.40;3.77;;;7.50;99.90;;;;;;5087052;28;20459;-72
2021/11/03 03:12:29;;;;;;;9.33;4.73;;;7.50;99.90;;;;;;5068667;28;20473;-73
2021/11/03 03:14:56;;;;;;;6.87;4.40;;;7.50;99.90;;;;;;5070548;28;20512;-73
2021/11/03 03:17:22;;;;;;;5.87;3.83;;;7.50;99.90;;;;;;5069800;28;20461;-73
2021/11/03 03:19:48;;;;;;;6.27;4.20;;;7.50;99.90;;;;;;5085528;28;20469;-72
2021/11/03 03:22:17;;;;;;;5.87;4.30;;;7.50;99.90;;;;;;5069855;28;20888;-73
2021/11/03 03:24:46;;;;;;;5.30;4.17;;;7.50;99.90;;;;;;5068669;28;20510;-73
2021/11/03 03:27:12;;;;;;;5.77;4.20;;;7.50;99.90;;;;;;5069583;28;20457;-73
2021/11/03 03:29:40;;;;;;;5.60;4.20;;;7.50;99.90;;;;;;5068581;28;20453;-73
2021/11/03 03:32:07;;;;;;;6.80;4.80;;;7.50;99.90;;;;;;5068844;28;20540;-72
2021/11/03 03:34:33;;;;;;;6.50;4.40;;;7.50;99.90;;;;;;5066068;28;20919;-73
2021/11/03 03:36:59;;;;;;;5.00;4.30;;;7.50;99.90;;;;;;5077266;28;20479;-73
2021/11/03 03:39:28;;;;;;;5.27;3.50;;;7.50;99.90;;;;;;5068781;28;20465;-73
2021/11/03 03:42:06;;;;;;;8.10;5.27;;;7.60;99.90;;;;;;5070195;28;20457;-73
2021/11/03 03:44:32;;;;;;;6.63;4.87;;;7.50;99.90;;;;;;5068408;28;20461;-73
2021/11/03 03:46:58;;;;;;;5.20;4.50;;;7.50;99.90;;;;;;5069157;28;20487;-73
2021/11/03 03:49:25;;;;;;;5.70;3.70;;;7.60;99.90;;;;;;5068617;28;20220;-73
2021/11/03 03:51:53;;;;;;;10.50;5.00;;;7.60;99.90;;;;;;5068895;28;20460;-71
2021/11/03 03:54:19;;;;;;;7.33;5.03;;;7.50;99.90;;;;;;5052459;28;20453;-73
2021/11/03 03:56:45;;;;;;;4.80;3.80;;;7.50;99.90;;;;;;5068420;28;20497;-70
2021/11/03 03:59:11;;;;;;;6.00;5.20;;;7.60;99.90;;;;;;5052571;28;20477;-73
2021/11/03 04:01:38;;;;;;;7.07;4.30;;;7.60;99.90;;;;;;5068287;28;20226;-73
2021/11/03 04:04:08;;;;;;;7.43;4.67;;;7.60;99.90;;;;;;5069172;28;20974;-73
2021/11/03 04:06:34;;;;;;;8.30;5.13;;;7.60;99.90;;;;;;5068166;28;20457;-73
2021/11/03 04:09:04;;;;;;;6.30;4.40;;;7.60;99.90;;;;;;5070318;28;20504;-72
2021/11/03 04:11:30;;;;;;;7.30;4.63;;;7.60;99.90;;;;;;5067701;28;20465;-73
2021/11/03 04:13:56;;;;;;;6.47;4.73;;;7.60;99.90;;;;;;5068416;28;20456;-73
2021/11/03 04:16:23;;;;;;;5.07;4.10;;;7.60;99.90;;;;;;5052471;28;20450;-74
2021/11/03 04:18:50;;;;;;;8.40;4.70;;;7.60;99.90;;;;;;5068944;28;21006;-71
2021/11/03 04:21:17;;;;;;;8.77;5.10;;;7.60;99.90;;;;;;5068572;28;20537;-73
2021/11/03 04:23:44;;;;;;;14.13;5.10;;;7.60;99.90;;;;;;5066689;28;20915;-72
2021/11/03 04:26:39;;;;;;;7.90;5.10;;;7.60;99.90;;;;;;5069076;28;20465;-73
2021/11/03 04:29:08;;;;;;;6.80;5.07;;;7.60;99.90;;;;;;5068332;28;20518;-73
2021/11/03 04:31:35;;;;;;;8.87;5.37;;;7.60;99.90;;;;;;5050293;28;21055;-73
2021/11/03 04:34:02;;;;;;;8.60;5.40;;;7.60;99.90;;;;;;5068724;28;20568;-73
2021/11/03 04:36:28;;;;;;;9.03;5.93;;;7.60;99.90;;;;;;5067101;28;20464;-73
2021/11/03 04:38:57;;;;;;;7.43;5.70;;;7.60;99.90;;;;;;5068924;28;20990;-73
2021/11/03 04:41:25;;;;;;;10.70;5.20;;;7.60;99.90;;;;;;5068400;28;20476;-74
2021/11/03 04:43:52;;;;;;;8.60;5.10;;;7.60;99.90;;;;;;5068125;28;20460;-73
2021/11/03 04:46:19;;;;;;;10.17;6.10;;;7.60;99.90;;;;;;5051594;28;20496;-72
2021/11/03 04:48:46;;;;;;;11.60;6.93;;;7.60;99.90;;;;;;5067291;28;20483;-73
2021/11/03 04:51:14;;;;;;;11.17;6.70;;;7.60;99.90;;;;;;5051748;28;20580;-73
2021/11/03 04:53:40;;;;;;;10.20;6.53;;;7.70;99.90;;;;;;5066855;28;20496;-73
2021/11/03 04:56:07;;;;;;;9.17;6.67;;;7.70;99.90;;;;;;5068611;28;20993;-73
2021/11/03 04:58:34;;;;;;;10.77;6.20;;;7.60;99.90;;;;;;5067121;28;20600;-72
2021/11/03 05:01:00;;;;;;;10.60;6.20;;;7.60;99.90;;;;;;5067445;28;21006;-73
2021/11/03 05:03:27;;;;;;;12.27;6.17;;;7.60;99.90;;;;;;5050241;28;20216;-73
2021/11/03 05:05:54;;;;;;;9.60;5.93;;;7.70;99.90;;;;;;5051264;28;20792;-73
2021/11/03 05:08:21;;;;;;;8.30;5.63;;;7.60;99.90;;;;;;5068264;28;20227;-73
2021/11/03 05:10:47;;;;;;;13.40;6.80;;;7.70;99.90;;;;;;5066681;28;20489;-73
2021/11/03 05:13:13;;;;;;;9.63;6.47;;;7.70;99.90;;;;;;5068137;28;20223;-73
2021/11/03 05:15:39;;;;;;;9.87;6.57;;;7.70;99.90;;;;;;5065906;28;20536;-72
2021/11/03 05:18:05;;;;;;;11.57;7.30;;;7.70;99.90;;;;;;5067957;28;20208;-71
2021/11/03 05:20:31;;;;;;;10.40;7.10;;;7.70;99.90;;;;;;5066422;28;20318;-73
2021/11/03 05:22:57;;;;;;;11.00;6.63;;;7.70;99.90;;;;;;5067990;28;20218;-72
2021/11/03 05:25:25;;;;;;;10.60;6.70;;;7.70;99.90;;;;;;5068081;28;20226;-72
2021/11/03 05:27:51;;;;;;;11.43;7.57;;;7.70;99.90;;;;;;5067862;28;20586;-72
2021/11/03 05:30:18;;;;;;;9.30;7.27;;;7.70;99.90;;;;;;5064846;28;20449;-72
2021/11/03 05:32:44;;;;;;;10.87;7.33;;;7.70;99.90;;;;;;5064561;28;20456;-73
2021/11/03 05:35:10;;;;;;;13.40;8.07;;;7.70;99.90;;;;;;5066809;28;20449;-72
2021/11/03 05:37:36;;;;;;;10.37;7.40;;;7.70;99.90;;;;;;5066024;28;20453;-72
2021/11/03 05:40:06;;;;;;;12.37;7.37;;;7.70;99.90;;;;;;5049991;28;20457;-72
2021/11/03 05:42:31;;;;;;;9.30;6.30;;;7.80;99.90;;;;;;5062455;28;20524;-72
2021/11/03 05:44:57;;;;;;;11.43;6.97;;;7.70;99.90;;;;;;5065211;28;20465;-72
2021/11/03 05:47:27;;;;;;;10.90;7.10;;;7.80;99.90;;;;;;5067626;28;20276;-72
2021/11/03 05:49:54;;;;;;;11.13;6.80;;;7.80;99.90;;;;;;5066929;28;20223;-72
2021/11/03 05:52:20;;;;;;;13.30;7.40;;;7.80;99.90;;;;;;5066851;28;20540;-71
2021/11/03 05:54:46;;;;;;;7.80;5.47;;;7.80;99.90;;;;;;5065150;28;20556;-72
2021/11/03 05:57:20;;;;;;;7.87;5.30;;;7.80;99.90;;;;;;5066958;28;20542;-72
2021/11/03 05:59:47;;;;;;;8.70;5.50;;;7.70;99.90;;;;;;5065811;28;20465;-72
2021/11/03 06:02:13;;;;;;;6.03;5.00;;;7.70;99.90;;;;;;5062755;28;20455;-71
2021/11/03 06:04:38;;;;;;;7.53;5.77;;;7.80;99.90;;;;;;5029670;28;20520;-72
2021/11/03 06:07:04;;;;;;;7.50;5.50;;;7.80;99.90;;;;;;5044803;28;20219;-73
2021/11/03 06:09:30;;;;;;;6.87;5.20;;;7.80;99.90;;;;;;5064740;28;20215;-73
2021/11/03 06:11:55;;;;;;;5.63;4.60;;;7.80;99.90;;;;;;5065442;28;20226;-73
2021/11/03 06:14:21;;;;;;;7.83;5.40;;;7.80;99.90;;;;;;5066495;28;20227;-72
2021/11/03 06:16:47;;;;;;;8.50;4.83;;;7.70;99.90;;;;;;5045871;28;20366;-70
2021/11/03 06:19:12;;;;;;;8.13;4.90;;;7.70;99.90;;;;;;5047364;28;20255;-72
2021/11/03 06:21:38;;;;;;;7.40;5.53;;;7.70;99.90;;;;;;5045660;28;20232;-73
2021/11/03 06:24:04;;;;;;;6.53;4.83;;;7.70;99.90;;;;;;5055287;28;20361;-73
2021/11/03 06:26:31;;;;;;;7.77;5.33;;;7.70;99.90;;;;;;5065731;28;20211;-73
2021/11/03 06:28:57;;;;;;;9.30;5.00;;;7.70;99.90;;;;;;5067227;28;20223;-71
2021/11/03 06:31:23;;;;;;;13.50;7.30;;;7.70;99.90;;;;;;5065760;28;20473;-72
2021/11/03 06:33:49;;;;;;;12.97;9.53;;;7.70;99.90;;;;;;5064366;28;20222;-72
2021/11/03 06:36:15;;;;;;;7.87;6.87;;;7.70;99.90;;;;;;5066521;28;20231;-73
2021/11/03 06:38:41;;;;;;;8.57;6.57;;;7.70;99.90;;;;;;5048553;28;20545;-73
2021/11/03 06:41:09;;;;;;;8.87;6.50;;;7.70;99.90;;;;;;5068077;28;20461;-74
2021/11/03 06:43:35;;;;;;;13.23;4.97;;;7.80;99.90;;;;;;5067515;28;20453;-71
2021/11/03 06:46:01;;;;;;;7.10;5.23;;;7.70;99.90;;;;;;5054167;28;20457;-74
2021/11/03 06:48:27;;;;;;;7.53;5.03;;;7.70;99.90;;;;;;5068386;28;20211;-73
2021/11/03 06:50:52;;;;;;;7.00;4.67;;;7.70;99.90;;;;;;5070660;28;20223;-73
2021/11/03 06:53:22;;;;;;;6.63;4.80;;;7.70;99.90;;;;;;5070122;28;20230;-75
2021/11/03 06:55:49;;;;;;;6.97;5.57;;;7.80;99.90;;;;;;5066680;28;20616;-73
2021/11/03 06:58:16;;;;;;;10.13;5.23;;;7.80;99.90;;;;;;5067272;28;20502;-74
2021/11/03 07:00:44;;;;;;;8.97;5.97;;;7.80;99.90;;;;;;5066930;28;20458;-73
2021/11/03 07:03:10;;;;;;;10.63;5.20;;;7.80;99.90;;;;;;5067900;28;20498;-74
2021/11/03 07:05:41;;;;;;;8.60;5.47;;;7.80;99.90;;;;;;5067447;28;20492;-74
2021/11/03 07:08:07;;;;;;;6.63;5.67;;;7.80;99.90;;;;;;5065233;28;20681;-75
2021/11/03 07:10:37;;;;;;;7.47;6.10;;;7.80;99.90;;;;;;5044095;28;20821;-74
2021/11/03 07:13:04;;;;;;;7.33;6.13;;;7.80;99.90;;;;;;5068315;28;20477;-73
2021/11/03 07:15:30;;;;;;;6.50;5.37;;;7.80;99.90;;;;;;5065967;28;20468;-72
2021/11/03 07:17:56;;;;;;;7.27;5.13;;;7.80;99.90;;;;;;5051268;28;21004;-74
2021/11/03 07:20:23;;;;;;;5.50;4.17;;;7.80;99.90;;;;;;5051773;28;20488;-75
2021/11/03 07:22:49;;;;;;;7.50;4.60;;;7.80;99.90;;;;;;5066752;28;20487;-73
2021/11/03 07:25:19;;;;;;;6.23;4.50;;;7.80;99.90;;;;;;5067079;28;20489;-73
2021/11/03 07:27:47;;;;;;;6.93;4.60;;;7.80;99.90;;;;;;5066627;28;20508;-73
2021/11/03 07:30:15;;;;;;;5.60;4.33;;;7.80;99.90;;;;;;5068054;28;20457;-75
2021/11/03 07:32:41;;;;;;;8.73;4.67;;;7.90;99.90;;;;;;5064925;28;20477;-74
2021/11/03 07:35:07;;;;;;;4.63;4.10;;;7.90;99.90;;;;;;5067533;28;21019;-73
2021/11/03 07:37:33;;;;;;;6.77;4.43;;;7.90;99.90;;;;;;5066420;28;20469;-74
2021/11/03 07:39:59;;;;;;;7.43;5.17;;;7.90;99.90;;;;;;5067292;28;20477;-73
2021/11/03 07:42:25;;;;;;;5.77;4.13;;;7.90;99.90;;;;;;5066430;28;20234;-73
2021/11/03 07:44:54;;;;;;;8.13;5.47;;;7.90;99.90;;;;;;5066538;28;20656;-73
2021/11/03 07:47:20;;;;;;;18.37;9.07;;;7.90;99.90;;;;;;5067087;28;20488;-73
2021/11/03 07:49:46;;;;;;;23.23;11.00;;;7.90;99.90;;;;;;5066701;28;20298;-75
2021/11/03 07:52:11;;;;;;;13.30;8.53;;;7.90;99.90;;;;;;5049930;28;20243;-74
2021/11/03 07:54:37;;;;;;;10.37;6.47;;;7.90;99.90;;;;;;5047946;28;20279;-74
2021/11/03 07:57:03;;;;;;;13.27;7.77;;;7.90;99.90;;;;;;5066823;28;20227;-74
2021/11/03 07:59:29;;;;;;;10.30;7.60;;;7.90;99.90;;;;;;5064121;28;20230;-73
2021/11/03 08:01:55;;;;;;;7.80;5.90;;;7.90;99.90;;;;;;5066546;28;20461;-73
2021/11/03 08:04:21;;;;;;;6.90;5.90;;;7.90;99.90;;;;;;5067915;28;20238;-74
2021/11/03 08:06:47;;;;;;;9.83;6.50;;;7.90;99.90;;;;;;5050676;28;20219;-72
2021/11/03 08:09:14;;;;;;;9.67;7.10;;;8.00;99.90;;;;;;5080135;28;20887;-73
2021/11/03 08:11:49;;;;;;;12.20;7.17;;;8.00;99.90;;;;;;5066671;28;20507;-74
2021/11/03 08:14:20;;;;;;;7.70;6.20;;;8.00;99.90;;;;;;5051971;28;20555;-74
2021/11/03 08:17:04;;;;;;;4.83;3.83;;;8.00;99.90;;;;;;5067231;28;20473;-72
2021/11/03 08:19:35;;;;;;;5.93;4.30;;;8.00;99.90;;;;;;5067623;28;20978;-73
2021/11/03 08:22:02;;;;;;;4.10;3.70;;;8.00;99.90;;;;;;5070661;28;20449;-74
2021/11/03 08:24:27;;;;;;;7.50;4.40;;;8.00;99.90;;;;;;5066603;28;20465;-73
2021/11/03 08:26:55;;;;;;;6.37;4.47;;;8.00;99.90;;;;;;5086028;28;20219;-73
2021/11/03 08:29:21;;;;;;;4.50;4.10;;;8.00;99.90;;;;;;5089628;28;20263;-73
2021/11/03 08:31:47;;;;;;;6.13;4.60;;;8.00;99.90;;;;;;5088023;28;20973;-73
2021/11/03 08:34:14;;;;;;;5.20;4.20;;;8.10;99.90;;;;;;5052321;28;20507;-73
2021/11/03 08:36:40;;;;;;;5.70;4.27;;;8.10;99.90;;;;;;5067801;28;20469;-73
2021/11/03 08:39:07;;;;;;;5.70;4.20;;;8.10;99.90;;;;;;5068450;28;20990;-73
2021/11/03 08:41:33;;;;;;;5.20;3.77;;;8.10;99.90;;;;;;5067358;28;20218;-73
2021/11/03 08:43:59;;;;;;;7.50;3.73;;;8.10;99.90;;;;;;5052169;28;20463;-73
2021/11/03 08:46:25;;;;;;;5.57;3.57;;;8.10;99.90;;;;;;5068901;28;20219;-74
2021/11/03 08:48:55;;;;;;;4.93;3.60;;;8.10;99.90;;;;;;5076617;28;20261;-73
2021/11/03 08:51:21;;;;;;;4.40;3.50;;;8.10;99.90;;;;;;5068516;28;20292;-73
2021/11/03 08:53:47;;;;;;;4.53;3.50;;;8.10;99.90;;;;;;5066991;28;20503;-73
2021/11/03 08:56:14;;;;;;;5.23;3.70;;;8.20;99.90;;;;;;5068616;28;20211;-74
2021/11/03 08:58:40;;;;;;;6.00;4.20;;;8.10;99.90;;;;;;5066266;28;20583;-74
2021/11/03 09:01:06;;;;;;;4.83;3.40;;;8.20;99.90;;;;;;5067847;28;20441;-72
2021/11/03 09:03:34;;;;;;;6.60;4.30;;;8.20;99.90;;;;;;5066643;28;20207;-73
2021/11/03 09:06:02;;;;;;;9.20;4.30;;;8.20;99.90;;;;;;5067767;28;20453;-73
2021/11/03 09:08:28;;;;;;;4.77;4.03;;;8.20;99.90;;;;;;5066798;28;20453;-73
2021/11/03 09:10:59;;;;;;;5.03;3.77;;;8.20;99.90;;;;;;5068314;28;20532;-73
2021/11/03 09:13:27;;;;;;;6.93;4.70;;;8.20;99.90;;;;;;5066845;28;20461;-73
2021/11/03 09:15:54;;;;;;;6.80;4.50;;;8.20;99.90;;;;;;5067492;28;20453;-73
2021/11/03 09:18:20;;;;;;;5.60;3.80;;;8.20;99.90;;;;;;5069499;28;20454;-73
2021/11/03 09:20:48;;;;;;;4.10;3.00;;;8.20;99.90;;;;;;5065886;28;20561;-74
2021/11/03 09:23:15;;;;;;;4.20;3.80;;;8.30;99.90;;;;;;5066860;28;20465;-73
2021/11/03 09:25:42;;;;;;;5.17;3.67;;;8.30;99.90;;;;;;5066494;28;20557;-74
2021/11/03 09:28:08;;;;;;;6.97;4.07;;;8.30;99.90;;;;;;5067273;28;20457;-74
2021/11/03 09:30:36;;;;;;;5.33;3.93;;;8.30;99.90;;;;;;5049554;28;20453;-74
2021/11/03 09:33:05;;;;;;;5.70;3.57;;;8.30;99.90;;;;;;5066446;28;20454;-74
2021/11/03 09:35:34;;;;;;;3.80;3.40;;;8.30;99.90;;;;;;5066143;28;20449;-73
2021/11/03 09:38:01;;;;;;;6.10;4.07;;;8.30;99.90;;;;;;5067572;28;20495;-73
2021/11/03 09:40:42;;;;;;;5.90;3.57;;;8.30;99.90;;;;;;5065228;28;20568;-73
2021/11/03 09:43:33;;;;;;;4.30;2.87;;;8.30;99.90;;;;;;5066573;28;20471;-73
2021/11/03 09:46:02;;;;;;;4.03;3.03;;;8.40;99.90;;;;;;5067384;28;20860;-74
2021/11/03 09:48:34;;;;;;;4.23;3.23;;;8.40;99.90;;;;;;5066339;28;20980;-73
2021/11/03 09:51:05;;;;;;;5.33;3.73;;;8.40;99.90;;;;;;5048916;28;20451;-73
2021/11/03 09:53:45;;;;;;;5.73;3.00;;;8.40;99.90;;;;;;5065815;28;20461;-74
2021/11/03 09:56:15;;;;;;;3.90;3.50;;;8.40;99.90;;;;;;5051015;28;20560;-73
2021/11/03 09:59:00;;;;;;;4.63;3.43;;;8.40;99.90;;;;;;5066801;28;20476;-73
2021/11/03 10:01:47;;;;;;;5.40;3.70;;;8.40;99.90;;;;;;5045982;28;21020;-73
2021/11/03 10:04:34;;;;;;;5.47;3.77;;;8.40;99.90;;;;;;5066220;28;20446;-73
2021/11/03 10:07:32;;;;;;;5.30;3.90;;;8.50;99.90;;;;;;5067364;28;20954;-73
2021/11/03 10:10:08;;;;;;;3.93;3.13;;;8.40;99.90;;;;;;5065144;28;20451;-73
2021/11/03 10:12:34;;;;;;;4.00;3.60;;;8.50;99.90;;;;;;5063852;28;20551;-74
2021/11/03 10:15:01;;;;;;;6.37;3.77;;;8.50;99.90;;;;;;5066984;28;20537;-73
2021/11/03 10:17:30;;;;;;;6.63;3.93;;;8.50;99.90;;;;;;5066344;28;20229;-73
2021/11/03 10:19:56;;;;;;;3.83;3.13;;;8.50;99.90;;;;;;5064242;28;20462;-74
2021/11/03 10:22:35;;;;;;;5.13;3.77;;;8.50;99.90;;;;;;5066809;28;20518;-73
2021/11/03 10:25:21;;;;;;;3.17;2.73;;;8.60;99.90;;;;;;5066655;28;20461;-73
2021/11/03 10:27:58;;;;;;;5.13;4.07;;;8.60;99.90;;;;;;5065311;28;20448;-73
2021/11/03 10:30:49;;;;;;;3.87;3.47;;;8.60;99.90;;;;;;5066079;28;20958;-73
2021/11/03 10:33:38;;;;;;;5.37;3.63;;;8.60;99.90;;;;;;5062961;28;20485;-73
2021/11/03 10:36:20;;;;;;;4.47;4.17;;;8.60;99.90;;;;;;5046032;28;20466;-73
2021/11/03 10:38:52;;;;;;;5.07;4.60;;;8.60;99.90;;;;;;5045739;28;20462;-73
2021/11/03 10:41:29;;;;;;;7.30;5.20;;;8.60;99.90;;;;;;5046858;28;20518;-73
2021/11/03 10:44:05;;;;;;;5.10;4.60;;;8.60;99.90;;;;;;5066130;28;20447;-73
2021/11/03 10:46:39;;;;;;;6.87;4.60;;;8.60;99.90;;;;;;5061079;28;20453;-72
2021/11/03 10:49:19;;;;;;;5.47;4.40;;;8.60;99.90;;;;;;5067231;28;20457;-73
2021/11/03 10:51:56;;;;;;;4.70;4.30;;;8.70;99.90;;;;;;5078734;28;20445;-73
2021/11/03 10:54:21;;;;;;;9.67;5.07;;;8.70;99.90;;;;;;5046361;28;21032;-72
2021/11/03 10:56:56;;;;;;;5.20;4.70;;;8.70;99.90;;;;;;5048763;28;20453;-71
2021/11/03 10:59:29;;;;;;;6.70;5.13;;;8.80;99.90;;;;;;5046973;28;20227;-73
2021/11/03 11:01:57;;;;;;;5.30;4.30;;;8.70;99.90;;;;;;5046482;28;20512;-71
2021/11/03 11:04:31;;;;;;;4.47;4.03;;;8.70;99.90;;;;;;5061480;28;20532;-72
2021/11/03 11:07:11;;;;;;;4.53;3.77;;;8.80;99.90;;;;;;5066598;28;20481;-73
2021/11/03 11:09:45;;;;;;;4.80;4.33;;;8.80;99.90;;;;;;5064007;28;21104;-73
2021/11/03 11:12:21;;;;;;;3.40;3.10;;;8.80;99.90;;;;;;5062528;28;20476;-72
2021/11/03 11:14:47;;;;;;;4.47;3.90;;;8.80;99.90;;;;;;5067552;28;20456;-73
2021/11/03 11:17:23;;;;;;;6.13;4.37;;;8.80;99.90;;;;;;5049904;28;20461;-74
2021/11/03 11:20:04;;;;;;;4.23;3.83;;;8.80;99.90;;;;;;5047147;28;20464;-73
2021/11/03 11:23:11;;;;;;;5.80;4.30;;;8.90;99.90;;;;;;5047684;28;20481;-73
2021/11/03 11:25:42;;;;;;;6.00;3.90;;;8.90;99.90;;;;;;5034866;28;21017;-72
2021/11/03 11:28:59;;;;;;;4.40;4.00;;;8.90;99.90;;;;;;5066699;28;20502;-73
2021/11/03 11:31:48;;;;;;;3.87;3.57;;;8.90;99.90;;;;;;5051776;28;20470;-73
2021/11/03 11:34:33;;;;;;;4.10;3.47;;;8.90;99.90;;;;;;5068959;28;20465;-73
2021/11/03 11:37:20;;;;;;;6.27;3.37;;;9.00;99.90;;;;;;5069919;28;20445;-72
2021/11/03 11:39:53;;;;;;;3.87;3.37;;;9.00;99.90;;;;;;5068687;28;20484;-73
2021/11/03 11:42:36;;;;;;;3.70;3.33;;;9.00;99.90;;;;;;5052566;28;20465;-73
2021/11/03 11:45:19;;;;;;;4.63;3.80;;;9.00;99.90;;;;;;5051413;28;20828;-74
2021/11/03 11:47:51;;;;;;;7.90;4.27;;;9.10;99.90;;;;;;5047752;28;20477;-73
2021/11/03 11:50:39;;;;;;;4.03;3.40;;;9.10;99.90;;;;;;5034002;28;20482;-72
2021/11/03 11:53:28;;;;;;;4.80;4.10;;;9.10;99.90;;;;;;5065598;28;20450;-73
2021/11/03 11:56:09;;;;;;;4.00;3.60;;;9.20;99.90;;;;;;5059232;28;20517;-72
2021/11/03 11:58:42;;;;;;;4.07;3.70;;;9.20;99.90;;;;;;5068197;28;20557;-74
2021/11/03 12:01:14;;;;;;;4.70;3.57;;;9.20;99.90;;;;;;5058599;28;20461;-72
2021/11/03 12:04:05;;;;;;;4.97;4.20;;;9.30;99.90;;;;;;5067677;28;20873;-74
2021/11/03 12:06:46;;;;;;;4.23;3.73;;;9.30;99.90;;;;;;5035646;28;20445;-74
2021/11/03 12:09:23;;;;;;;3.67;3.37;;;9.30;99.90;;;;;;5038723;28;20473;-73
2021/11/03 12:11:55;;;;;;;3.20;2.90;;;9.30;99.90;;;;;;5031340;28;20465;-74
2021/11/03 12:14:39;;;;;;;2.37;2.23;;;9.40;99.90;;;;;;5031070;28;20478;-73
2021/11/03 12:17:08;;;;;;;2.43;2.23;;;9.40;99.90;;;;;;5069112;28;20465;-73
2021/11/03 12:19:36;;;;;;;3.10;2.80;;;9.40;99.90;;;;;;5063921;28;20494;-73
2021/11/03 12:22:30;;;;;;;2.63;2.43;;;9.40;99.90;;;;;;5079958;28;20449;-74
2021/11/03 12:25:14;;;;;;;2.17;2.07;;;9.50;99.90;;;;;;5063247;28;20989;-74
2021/11/03 12:27:41;;;;;;;3.80;2.60;;;9.50;99.90;;;;;;5052250;28;20494;-73
2021/11/03 12:30:14;;;;;;;3.57;2.60;;;9.50;99.90;;;;;;5051432;28;20443;-73
2021/11/03 12:32:40;;;;;;;3.13;2.83;;;9.50;99.90;;;;;;5056423;28;20460;-74
2021/11/03 12:35:26;;;;;;;3.60;2.50;;;9.50;99.90;;;;;;5044542;28;20452;-74
2021/11/03 12:38:21;;;;;;;2.93;2.40;;;9.60;99.90;;;;;;5027649;28;20220;-72
2021/11/03 12:40:49;;;;;;;2.77;2.30;;;9.60;99.90;;;;;;5046059;28;20559;-74
2021/11/03 12:43:26;;;;;;;3.10;2.87;;;9.60;99.90;;;;;;5058003;28;20454;-74
2021/11/03 12:46:06;;;;;;;2.23;2.03;;;9.60;99.90;;;;;;5052517;28;20544;-74
2021/11/03 12:48:35;;;;;;;2.90;2.70;;;9.60;99.90;;;;;;5048968;28;20469;-75
2021/11/03 12:51:01;;;;;;;3.87;3.37;;;9.70;99.90;;;;;;5067468;28;20546;-74
2021/11/03 12:53:32;;;;;;;4.10;3.33;;;9.70;99.90;;;;;;5061824;28;20994;-74
2021/11/03 12:56:10;;;;;;;3.70;3.00;;;9.70;99.90;;;;;;5051497;28;20760;-74
2021/11/03 12:58:38;;;;;;;5.07;3.90;;;9.70;99.90;;;;;;5026834;28;21019;-73
2021/11/03 13:01:23;;;;;;;4.03;3.60;;;9.70;99.90;;;;;;5047677;28;20473;-74
2021/11/03 13:04:10;;;;;;;6.13;3.83;;;9.80;99.90;;;;;;5049970;28;20514;-73
2021/11/03 13:06:43;;;;;;;3.90;3.50;;;9.80;99.90;;;;;;5062487;28;20454;-73
2021/11/03 13:09:25;;;;;;;3.93;3.47;;;9.80;99.90;;;;;;5059821;28;20442;-74
2021/11/03 13:11:51;;;;;;;3.97;3.60;;;9.80;99.90;;;;;;5066599;28;20971;-73